sensor_id;sensor_type;location;lat;lon;timestamp;temperature;humidity
52203;DHT22;38173;52.850;6.970;2023-06-19T00:01:51;22.10;81.80
52203;DHT22;38173;52.850;6.970;2023-06-19T00:04:17;22.10;81.30
52203;DHT22;38173;52.850;6.970;2023-06-19T00:06:46;22.10;81.30
52203;DHT22;38173;52.850;6.970;2023-06-19T00:09:12;22.10;81.30
52203;DHT22;38173;52.850;6.970;2023-06-19T00:11:42;22.10;80.90
52203;DHT22;38173;52.850;6.970;2023-06-19T00:14:10;22.20;80.50
52203;DHT22;38173;52.850;6.970;2023-06-19T00:16:52;22.20;80.70
52203;DHT22;38173;52.850;6.970;2023-06-19T00:19:31;22.20;81.30
52203;DHT22;38173;52.850;6.970;2023-06-19T00:22:14;22.20;80.50
52203;DHT22;38173;52.850;6.970;2023-06-19T00:24:42;22.20;80.30
52203;DHT22;38173;52.850;6.970;2023-06-19T00:27:15;22.20;79.90
52203;DHT22;38173;52.850;6.970;2023-06-19T00:29:41;22.30;79.80
52203;DHT22;38173;52.850;6.970;2023-06-19T00:32:10;22.30;79.00
52203;DHT22;38173;52.850;6.970;2023-06-19T00:34:38;22.30;78.60
52203;DHT22;38173;52.850;6.970;2023-06-19T00:37:04;22.30;78.60
52203;DHT22;38173;52.850;6.970;2023-06-19T00:39:30;22.30;78.20
52203;DHT22;38173;52.850;6.970;2023-06-19T00:41:56;22.30;77.90
52203;DHT22;38173;52.850;6.970;2023-06-19T00:44:32;22.30;78.10
52203;DHT22;38173;52.850;6.970;2023-06-19T00:47:03;22.40;77.60
52203;DHT22;38173;52.850;6.970;2023-06-19T00:49:33;22.40;77.50
52203;DHT22;38173;52.850;6.970;2023-06-19T00:52:06;22.40;77.60
52203;DHT22;38173;52.850;6.970;2023-06-19T00:54:39;22.40;77.40
52203;DHT22;38173;52.850;6.970;2023-06-19T00:57:05;22.40;77.50
52203;DHT22;38173;52.850;6.970;2023-06-19T00:59:35;22.40;77.20
52203;DHT22;38173;52.850;6.970;2023-06-19T01:02:07;22.40;77.10
52203;DHT22;38173;52.850;6.970;2023-06-19T01:04:37;22.40;77.00
52203;DHT22;38173;52.850;6.970;2023-06-19T01:07:09;22.40;77.10
52203;DHT22;38173;52.850;6.970;2023-06-19T01:09:51;22.30;76.90
52203;DHT22;38173;52.850;6.970;2023-06-19T01:12:24;22.30;76.70
52203;DHT22;38173;52.850;6.970;2023-06-19T01:15:13;22.30;76.90
52203;DHT22;38173;52.850;6.970;2023-06-19T01:17:50;22.30;76.80
52203;DHT22;38173;52.850;6.970;2023-06-19T01:20:24;22.30;77.00
52203;DHT22;38173;52.850;6.970;2023-06-19T01:22:57;22.20;77.40
52203;DHT22;38173;52.850;6.970;2023-06-19T01:25:24;22.20;77.40
52203;DHT22;38173;52.850;6.970;2023-06-19T01:27:51;22.20;77.60
52203;DHT22;38173;52.850;6.970;2023-06-19T01:30:17;22.10;77.80
52203;DHT22;38173;52.850;6.970;2023-06-19T01:32:51;22.10;77.90
52203;DHT22;38173;52.850;6.970;2023-06-19T01:35:25;22.00;77.90
52203;DHT22;38173;52.850;6.970;2023-06-19T01:38:06;22.00;77.80
52203;DHT22;38173;52.850;6.970;2023-06-19T01:40:33;22.00;77.90
52203;DHT22;38173;52.850;6.970;2023-06-19T01:43:01;22.00;78.20
52203;DHT22;38173;52.850;6.970;2023-06-19T01:45:31;22.00;78.00
52203;DHT22;38173;52.850;6.970;2023-06-19T01:47:58;22.10;78.10
52203;DHT22;38173;52.850;6.970;2023-06-19T01:50:28;22.10;77.90
52203;DHT22;38173;52.850;6.970;2023-06-19T01:53:00;22.10;78.20
52203;DHT22;38173;52.850;6.970;2023-06-19T01:55:27;22.10;78.10
52203;DHT22;38173;52.850;6.970;2023-06-19T01:57:53;22.10;78.20
52203;DHT22;38173;52.850;6.970;2023-06-19T02:00:23;22.10;78.60
52203;DHT22;38173;52.850;6.970;2023-06-19T02:02:56;22.10;78.80
52203;DHT22;38173;52.850;6.970;2023-06-19T02:05:25;22.10;78.90
52203;DHT22;38173;52.850;6.970;2023-06-19T02:07:57;22.10;79.30
52203;DHT22;38173;52.850;6.970;2023-06-19T02:10:27;22.00;79.40
52203;DHT22;38173;52.850;6.970;2023-06-19T02:12:53;21.90;79.70
52203;DHT22;38173;52.850;6.970;2023-06-19T02:15:25;21.90;79.80
52203;DHT22;38173;52.850;6.970;2023-06-19T02:17:56;21.80;80.20
52203;DHT22;38173;52.850;6.970;2023-06-19T02:20:31;21.80;80.40
52203;DHT22;38173;52.850;6.970;2023-06-19T02:23:00;21.80;80.70
52203;DHT22;38173;52.850;6.970;2023-06-19T02:25:30;21.80;81.00
52203;DHT22;38173;52.850;6.970;2023-06-19T02:28:03;21.80;81.10
52203;DHT22;38173;52.850;6.970;2023-06-19T02:30:29;21.80;81.60
52203;DHT22;38173;52.850;6.970;2023-06-19T02:32:55;21.70;81.50
52203;DHT22;38173;52.850;6.970;2023-06-19T02:35:23;21.70;81.80
52203;DHT22;38173;52.850;6.970;2023-06-19T02:37:49;21.60;82.20
52203;DHT22;38173;52.850;6.970;2023-06-19T02:40:21;21.60;82.60
52203;DHT22;38173;52.850;6.970;2023-06-19T02:42:48;21.60;83.40
52203;DHT22;38173;52.850;6.970;2023-06-19T02:45:20;21.60;83.70
52203;DHT22;38173;52.850;6.970;2023-06-19T02:47:55;21.60;84.60
52203;DHT22;38173;52.850;6.970;2023-06-19T02:50:24;21.60;85.00
52203;DHT22;38173;52.850;6.970;2023-06-19T02:52:59;21.70;85.20
52203;DHT22;38173;52.850;6.970;2023-06-19T02:55:25;21.70;86.10
52203;DHT22;38173;52.850;6.970;2023-06-19T02:57:51;21.70;86.60
52203;DHT22;38173;52.850;6.970;2023-06-19T03:00:22;21.70;86.30
52203;DHT22;38173;52.850;6.970;2023-06-19T03:02:56;21.70;87.30
52203;DHT22;38173;52.850;6.970;2023-06-19T03:05:24;21.70;87.30
52203;DHT22;38173;52.850;6.970;2023-06-19T03:07:53;21.70;88.60
52203;DHT22;38173;52.850;6.970;2023-06-19T03:10:20;21.70;89.30
52203;DHT22;38173;52.850;6.970;2023-06-19T03:12:46;21.60;89.90
52203;DHT22;38173;52.850;6.970;2023-06-19T03:15:18;21.60;90.20
52203;DHT22;38173;52.850;6.970;2023-06-19T03:17:50;21.50;90.40
52203;DHT22;38173;52.850;6.970;2023-06-19T03:20:16;21.60;91.00
52203;DHT22;38173;52.850;6.970;2023-06-19T03:22:43;21.50;91.10
52203;DHT22;38173;52.850;6.970;2023-06-19T03:25:09;21.50;91.50
52203;DHT22;38173;52.850;6.970;2023-06-19T03:27:36;21.50;91.80
52203;DHT22;38173;52.850;6.970;2023-06-19T03:30:03;21.50;92.00
52203;DHT22;38173;52.850;6.970;2023-06-19T03:32:34;21.40;92.50
52203;DHT22;38173;52.850;6.970;2023-06-19T03:35:02;21.40;92.80
52203;DHT22;38173;52.850;6.970;2023-06-19T03:37:28;21.40;93.20
52203;DHT22;38173;52.850;6.970;2023-06-19T03:39:55;21.30;93.50
52203;DHT22;38173;52.850;6.970;2023-06-19T03:42:24;21.40;94.20
52203;DHT22;38173;52.850;6.970;2023-06-19T03:44:50;21.30;94.50
52203;DHT22;38173;52.850;6.970;2023-06-19T03:47:18;21.30;94.80
52203;DHT22;38173;52.850;6.970;2023-06-19T03:49:53;21.30;95.80
52203;DHT22;38173;52.850;6.970;2023-06-19T03:52:22;21.30;95.80
52203;DHT22;38173;52.850;6.970;2023-06-19T03:54:51;21.30;96.10
52203;DHT22;38173;52.850;6.970;2023-06-19T03:57:24;21.30;96.50
52203;DHT22;38173;52.850;6.970;2023-06-19T04:00:00;21.40;96.80
52203;DHT22;38173;52.850;6.970;2023-06-19T04:02:30;21.30;97.20
52203;DHT22;38173;52.850;6.970;2023-06-19T04:05:03;21.40;97.80
52203;DHT22;38173;52.850;6.970;2023-06-19T04:07:29;21.40;98.10
52203;DHT22;38173;52.850;6.970;2023-06-19T04:10:04;21.40;98.00
52203;DHT22;38173;52.850;6.970;2023-06-19T04:12:33;21.40;98.40
52203;DHT22;38173;52.850;6.970;2023-06-19T04:15:00;21.40;98.20
52203;DHT22;38173;52.850;6.970;2023-06-19T04:17:26;21.40;98.70
52203;DHT22;38173;52.850;6.970;2023-06-19T04:19:52;21.40;98.50
52203;DHT22;38173;52.850;6.970;2023-06-19T04:22:22;21.30;99.10
52203;DHT22;38173;52.850;6.970;2023-06-19T04:24:50;21.30;99.60
52203;DHT22;38173;52.850;6.970;2023-06-19T04:27:16;21.30;99.90
52203;DHT22;38173;52.850;6.970;2023-06-19T04:29:44;21.30;99.90
52203;DHT22;38173;52.850;6.970;2023-06-19T04:32:11;21.30;99.90
52203;DHT22;38173;52.850;6.970;2023-06-19T04:34:39;21.20;99.90
52203;DHT22;38173;52.850;6.970;2023-06-19T04:37:08;21.30;99.90
52203;DHT22;38173;52.850;6.970;2023-06-19T04:39:35;21.30;99.90
52203;DHT22;38173;52.850;6.970;2023-06-19T04:42:00;21.30;99.90
52203;DHT22;38173;52.850;6.970;2023-06-19T04:44:27;21.30;99.90
52203;DHT22;38173;52.850;6.970;2023-06-19T04:46:56;21.30;99.90
52203;DHT22;38173;52.850;6.970;2023-06-19T04:49:32;21.30;99.90
52203;DHT22;38173;52.850;6.970;2023-06-19T04:51:58;21.30;99.90
52203;DHT22;38173;52.850;6.970;2023-06-19T04:54:25;21.30;99.90
52203;DHT22;38173;52.850;6.970;2023-06-19T04:56:57;21.40;99.90
52203;DHT22;38173;52.850;6.970;2023-06-19T04:59:24;21.40;99.90
52203;DHT22;38173;52.850;6.970;2023-06-19T05:01:52;21.40;99.90
52203;DHT22;38173;52.850;6.970;2023-06-19T05:04:22;21.50;99.90
52203;DHT22;38173;52.850;6.970;2023-06-19T05:06:49;21.50;99.90
52203;DHT22;38173;52.850;6.970;2023-06-19T05:09:19;21.50;99.90
52203;DHT22;38173;52.850;6.970;2023-06-19T05:11:45;21.60;99.90
52203;DHT22;38173;52.850;6.970;2023-06-19T05:14:11;21.60;99.90
52203;DHT22;38173;52.850;6.970;2023-06-19T05:16:50;21.70;99.90
52203;DHT22;38173;52.850;6.970;2023-06-19T05:19:19;21.80;99.90
52203;DHT22;38173;52.850;6.970;2023-06-19T05:21:51;21.80;99.90
52203;DHT22;38173;52.850;6.970;2023-06-19T05:24:21;21.80;99.90
52203;DHT22;38173;52.850;6.970;2023-06-19T05:26:50;21.90;99.90
52203;DHT22;38173;52.850;6.970;2023-06-19T05:29:22;21.90;99.90
52203;DHT22;38173;52.850;6.970;2023-06-19T05:31:51;21.90;99.90
52203;DHT22;38173;52.850;6.970;2023-06-19T05:34:23;22.00;99.90
52203;DHT22;38173;52.850;6.970;2023-06-19T05:36:50;21.90;99.90
52203;DHT22;38173;52.850;6.970;2023-06-19T05:39:19;21.90;99.90
52203;DHT22;38173;52.850;6.970;2023-06-19T05:41:48;21.80;99.90
52203;DHT22;38173;52.850;6.970;2023-06-19T05:44:15;21.80;99.90
52203;DHT22;38173;52.850;6.970;2023-06-19T05:46:42;21.80;99.90
52203;DHT22;38173;52.850;6.970;2023-06-19T05:49:11;21.80;99.90
52203;DHT22;38173;52.850;6.970;2023-06-19T05:51:37;21.80;99.90
52203;DHT22;38173;52.850;6.970;2023-06-19T05:54:06;21.80;99.90
52203;DHT22;38173;52.850;6.970;2023-06-19T05:56:33;21.70;99.90
52203;DHT22;38173;52.850;6.970;2023-06-19T05:58:59;21.60;99.90
52203;DHT22;38173;52.850;6.970;2023-06-19T06:01:27;21.60;99.90
52203;DHT22;38173;52.850;6.970;2023-06-19T06:03:57;21.70;99.90
52203;DHT22;38173;52.850;6.970;2023-06-19T06:06:29;21.70;99.90
52203;DHT22;38173;52.850;6.970;2023-06-19T06:08:55;21.80;99.90
52203;DHT22;38173;52.850;6.970;2023-06-19T06:11:23;21.90;99.90
52203;DHT22;38173;52.850;6.970;2023-06-19T06:13:49;22.00;99.90
52203;DHT22;38173;52.850;6.970;2023-06-19T06:16:16;22.20;99.90
52203;DHT22;38173;52.850;6.970;2023-06-19T06:18:45;22.40;99.90
52203;DHT22;38173;52.850;6.970;2023-06-19T06:21:11;22.40;99.90
52203;DHT22;38173;52.850;6.970;2023-06-19T06:23:41;22.50;99.90
52203;DHT22;38173;52.850;6.970;2023-06-19T06:26:07;22.50;99.90
52203;DHT22;38173;52.850;6.970;2023-06-19T06:28:36;22.60;99.90
52203;DHT22;38173;52.850;6.970;2023-06-19T06:31:04;22.70;99.90
52203;DHT22;38173;52.850;6.970;2023-06-19T06:33:39;22.60;99.90
52203;DHT22;38173;52.850;6.970;2023-06-19T06:36:05;22.60;99.90
52203;DHT22;38173;52.850;6.970;2023-06-19T06:38:31;22.60;99.90
52203;DHT22;38173;52.850;6.970;2023-06-19T06:40:57;22.60;99.90
52203;DHT22;38173;52.850;6.970;2023-06-19T06:43:30;22.60;99.90
52203;DHT22;38173;52.850;6.970;2023-06-19T06:45:57;22.60;99.90
52203;DHT22;38173;52.850;6.970;2023-06-19T06:48:23;22.60;99.90
52203;DHT22;38173;52.850;6.970;2023-06-19T06:50:52;22.60;99.90
52203;DHT22;38173;52.850;6.970;2023-06-19T06:53:27;22.60;99.90
52203;DHT22;38173;52.850;6.970;2023-06-19T06:56:05;22.70;99.90
52203;DHT22;38173;52.850;6.970;2023-06-19T06:58:31;22.80;99.90
52203;DHT22;38173;52.850;6.970;2023-06-19T07:00:57;22.90;99.90
52203;DHT22;38173;52.850;6.970;2023-06-19T07:03:23;22.90;99.90
52203;DHT22;38173;52.850;6.970;2023-06-19T07:05:50;22.90;99.90
52203;DHT22;38173;52.850;6.970;2023-06-19T07:08:19;22.90;99.90
52203;DHT22;38173;52.850;6.970;2023-06-19T07:10:50;23.00;99.90
52203;DHT22;38173;52.850;6.970;2023-06-19T07:13:19;23.10;99.90
52203;DHT22;38173;52.850;6.970;2023-06-19T07:15:45;23.10;99.90
52203;DHT22;38173;52.850;6.970;2023-06-19T07:18:11;23.10;99.90
52203;DHT22;38173;52.850;6.970;2023-06-19T07:20:41;23.00;99.90
52203;DHT22;38173;52.850;6.970;2023-06-19T07:23:08;22.90;99.90
52203;DHT22;38173;52.850;6.970;2023-06-19T07:25:34;22.90;99.90
52203;DHT22;38173;52.850;6.970;2023-06-19T07:28:03;22.90;99.90
52203;DHT22;38173;52.850;6.970;2023-06-19T07:30:31;22.80;99.90
52203;DHT22;38173;52.850;6.970;2023-06-19T07:33:00;22.80;99.90
52203;DHT22;38173;52.850;6.970;2023-06-19T07:35:39;22.80;99.90
52203;DHT22;38173;52.850;6.970;2023-06-19T07:38:08;22.80;99.90
52203;DHT22;38173;52.850;6.970;2023-06-19T07:40:37;22.70;99.90
52203;DHT22;38173;52.850;6.970;2023-06-19T07:43:03;22.60;99.90
52203;DHT22;38173;52.850;6.970;2023-06-19T07:45:32;22.60;99.90
52203;DHT22;38173;52.850;6.970;2023-06-19T07:47:58;22.50;99.90
52203;DHT22;38173;52.850;6.970;2023-06-19T07:50:30;22.40;99.90
52203;DHT22;38173;52.850;6.970;2023-06-19T07:53:01;22.40;99.90
52203;DHT22;38173;52.850;6.970;2023-06-19T07:55:30;22.50;99.90
52203;DHT22;38173;52.850;6.970;2023-06-19T07:57:56;22.60;99.90
52203;DHT22;38173;52.850;6.970;2023-06-19T08:00:29;22.70;99.90
52203;DHT22;38173;52.850;6.970;2023-06-19T08:03:04;22.90;99.90
52203;DHT22;38173;52.850;6.970;2023-06-19T08:05:30;23.10;99.90
52203;DHT22;38173;52.850;6.970;2023-06-19T08:08:00;23.10;99.90
52203;DHT22;38173;52.850;6.970;2023-06-19T08:10:31;23.20;99.90
52203;DHT22;38173;52.850;6.970;2023-06-19T08:12:57;23.10;99.90
52203;DHT22;38173;52.850;6.970;2023-06-19T08:15:24;23.00;99.90
52203;DHT22;38173;52.850;6.970;2023-06-19T08:17:50;22.90;99.90
52203;DHT22;38173;52.850;6.970;2023-06-19T08:20:22;22.90;99.90
52203;DHT22;38173;52.850;6.970;2023-06-19T08:22:50;22.90;99.90
52203;DHT22;38173;52.850;6.970;2023-06-19T08:25:20;22.80;99.90
52203;DHT22;38173;52.850;6.970;2023-06-19T08:27:48;22.70;99.90
52203;DHT22;38173;52.850;6.970;2023-06-19T08:30:15;22.70;99.90
52203;DHT22;38173;52.850;6.970;2023-06-19T08:32:43;22.70;99.90
52203;DHT22;38173;52.850;6.970;2023-06-19T08:35:13;22.70;99.90
52203;DHT22;38173;52.850;6.970;2023-06-19T08:37:39;22.70;99.90
52203;DHT22;38173;52.850;6.970;2023-06-19T08:40:06;22.60;99.90
52203;DHT22;38173;52.850;6.970;2023-06-19T08:42:36;22.60;99.90
52203;DHT22;38173;52.850;6.970;2023-06-19T08:45:12;22.70;99.90
52203;DHT22;38173;52.850;6.970;2023-06-19T08:47:38;22.70;99.90
52203;DHT22;38173;52.850;6.970;2023-06-19T08:50:06;22.70;99.90
52203;DHT22;38173;52.850;6.970;2023-06-19T08:52:33;22.60;99.90
52203;DHT22;38173;52.850;6.970;2023-06-19T08:54:59;22.60;99.90
52203;DHT22;38173;52.850;6.970;2023-06-19T08:57:39;22.50;99.90
52203;DHT22;38173;52.850;6.970;2023-06-19T09:00:08;22.60;99.90
52203;DHT22;38173;52.850;6.970;2023-06-19T09:02:46;22.60;99.90
52203;DHT22;38173;52.850;6.970;2023-06-19T09:05:18;22.70;99.90
52203;DHT22;38173;52.850;6.970;2023-06-19T09:07:54;22.70;99.90
52203;DHT22;38173;52.850;6.970;2023-06-19T09:10:27;22.80;99.90
52203;DHT22;38173;52.850;6.970;2023-06-19T09:13:05;22.90;99.90
52203;DHT22;38173;52.850;6.970;2023-06-19T09:15:40;22.90;99.90
52203;DHT22;38173;52.850;6.970;2023-06-19T09:18:08;22.80;99.90
52203;DHT22;38173;52.850;6.970;2023-06-19T09:20:39;22.70;99.90
52203;DHT22;38173;52.850;6.970;2023-06-19T09:23:13;22.60;99.90
52203;DHT22;38173;52.850;6.970;2023-06-19T09:25:51;22.60;99.90
52203;DHT22;38173;52.850;6.970;2023-06-19T09:28:21;22.70;99.90
52203;DHT22;38173;52.850;6.970;2023-06-19T09:31:00;22.90;99.90
52203;DHT22;38173;52.850;6.970;2023-06-19T09:33:29;23.00;99.90
52203;DHT22;38173;52.850;6.970;2023-06-19T09:35:57;23.10;99.90
52203;DHT22;38173;52.850;6.970;2023-06-19T09:38:29;23.20;99.90
52203;DHT22;38173;52.850;6.970;2023-06-19T09:40:57;23.40;99.90
52203;DHT22;38173;52.850;6.970;2023-06-19T09:43:39;23.50;99.90
52203;DHT22;38173;52.850;6.970;2023-06-19T09:46:10;23.70;99.90
52203;DHT22;38173;52.850;6.970;2023-06-19T09:48:46;23.90;99.90
52203;DHT22;38173;52.850;6.970;2023-06-19T09:51:23;24.10;99.90
52203;DHT22;38173;52.850;6.970;2023-06-19T09:53:57;24.20;99.90
52203;DHT22;38173;52.850;6.970;2023-06-19T09:56:25;24.30;99.90
52203;DHT22;38173;52.850;6.970;2023-06-19T09:59:00;24.30;99.90
52203;DHT22;38173;52.850;6.970;2023-06-19T10:01:30;24.50;99.90
52203;DHT22;38173;52.850;6.970;2023-06-19T10:04:03;24.90;99.90
52203;DHT22;38173;52.850;6.970;2023-06-19T10:06:30;25.20;99.90
52203;DHT22;38173;52.850;6.970;2023-06-19T10:09:06;25.40;98.20
52203;DHT22;38173;52.850;6.970;2023-06-19T10:11:50;25.30;97.10
52203;DHT22;38173;52.850;6.970;2023-06-19T10:14:22;25.40;97.20
52203;DHT22;38173;52.850;6.970;2023-06-19T10:16:50;25.50;97.80
52203;DHT22;38173;52.850;6.970;2023-06-19T10:19:18;25.70;97.20
52203;DHT22;38173;52.850;6.970;2023-06-19T10:21:54;25.70;95.50
52203;DHT22;38173;52.850;6.970;2023-06-19T10:24:20;25.60;95.30
52203;DHT22;38173;52.850;6.970;2023-06-19T10:26:59;25.60;95.10
52203;DHT22;38173;52.850;6.970;2023-06-19T10:29:44;25.40;94.20
52203;DHT22;38173;52.850;6.970;2023-06-19T10:32:10;25.30;94.20
52203;DHT22;38173;52.850;6.970;2023-06-19T10:34:36;25.10;94.20
52203;DHT22;38173;52.850;6.970;2023-06-19T10:37:03;25.10;94.70
52203;DHT22;38173;52.850;6.970;2023-06-19T10:39:30;25.00;94.90
52203;DHT22;38173;52.850;6.970;2023-06-19T10:41:59;25.00;94.90
52203;DHT22;38173;52.850;6.970;2023-06-19T10:44:32;25.10;95.20
52203;DHT22;38173;52.850;6.970;2023-06-19T10:47:01;25.10;95.00
52203;DHT22;38173;52.850;6.970;2023-06-19T10:49:32;25.10;94.90
52203;DHT22;38173;52.850;6.970;2023-06-19T10:52:03;25.20;94.40
52203;DHT22;38173;52.850;6.970;2023-06-19T10:54:29;25.30;94.40
52203;DHT22;38173;52.850;6.970;2023-06-19T10:56:55;25.70;94.30
52203;DHT22;38173;52.850;6.970;2023-06-19T10:59:25;25.90;93.60
52203;DHT22;38173;52.850;6.970;2023-06-19T11:01:53;26.00;93.10
52203;DHT22;38173;52.850;6.970;2023-06-19T11:04:19;26.10;93.30
52203;DHT22;38173;52.850;6.970;2023-06-19T11:06:46;26.00;92.70
52203;DHT22;38173;52.850;6.970;2023-06-19T11:09:13;25.90;93.50
52203;DHT22;38173;52.850;6.970;2023-06-19T11:11:45;25.90;93.70
52203;DHT22;38173;52.850;6.970;2023-06-19T11:14:28;26.00;93.40
52203;DHT22;38173;52.850;6.970;2023-06-19T11:16:55;25.80;91.70
52203;DHT22;38173;52.850;6.970;2023-06-19T11:19:22;25.60;92.00
52203;DHT22;38173;52.850;6.970;2023-06-19T11:21:50;25.70;92.20
52203;DHT22;38173;52.850;6.970;2023-06-19T11:24:22;25.60;91.60
52203;DHT22;38173;52.850;6.970;2023-06-19T11:26:50;25.60;91.90
52203;DHT22;38173;52.850;6.970;2023-06-19T11:29:30;25.50;91.60
52203;DHT22;38173;52.850;6.970;2023-06-19T11:32:13;25.40;91.70
52203;DHT22;38173;52.850;6.970;2023-06-19T11:34:48;25.50;91.60
52203;DHT22;38173;52.850;6.970;2023-06-19T11:37:18;25.50;91.40
52203;DHT22;38173;52.850;6.970;2023-06-19T11:39:50;25.40;91.70
52203;DHT22;38173;52.850;6.970;2023-06-19T11:42:18;25.40;92.10
52203;DHT22;38173;52.850;6.970;2023-06-19T11:45:03;25.40;91.90
52203;DHT22;38173;52.850;6.970;2023-06-19T11:47:35;25.50;91.70
52203;DHT22;38173;52.850;6.970;2023-06-19T11:50:04;25.60;91.80
52203;DHT22;38173;52.850;6.970;2023-06-19T11:52:34;25.60;91.70
52203;DHT22;38173;52.850;6.970;2023-06-19T11:55:00;25.70;91.50
52203;DHT22;38173;52.850;6.970;2023-06-19T11:57:29;26.10;92.30
52203;DHT22;38173;52.850;6.970;2023-06-19T11:59:56;26.20;90.10
52203;DHT22;38173;52.850;6.970;2023-06-19T12:02:25;26.00;90.00
52203;DHT22;38173;52.850;6.970;2023-06-19T12:04:52;25.80;90.20
52203;DHT22;38173;52.850;6.970;2023-06-19T12:07:19;25.80;90.50
52203;DHT22;38173;52.850;6.970;2023-06-19T12:09:48;25.70;90.40
52203;DHT22;38173;52.850;6.970;2023-06-19T12:12:18;25.80;90.20
52203;DHT22;38173;52.850;6.970;2023-06-19T12:14:44;26.00;89.90
52203;DHT22;38173;52.850;6.970;2023-06-19T12:17:12;26.10;88.50
52203;DHT22;38173;52.850;6.970;2023-06-19T12:19:38;26.20;86.90
52203;DHT22;38173;52.850;6.970;2023-06-19T12:22:04;26.20;86.50
52203;DHT22;38173;52.850;6.970;2023-06-19T12:24:31;26.00;87.10
52203;DHT22;38173;52.850;6.970;2023-06-19T12:27:00;25.90;86.30
52203;DHT22;38173;52.850;6.970;2023-06-19T12:29:27;25.80;87.70
52203;DHT22;38173;52.850;6.970;2023-06-19T12:31:58;25.90;87.40
52203;DHT22;38173;52.850;6.970;2023-06-19T12:34:24;26.00;86.80
52203;DHT22;38173;52.850;6.970;2023-06-19T12:36:50;26.10;88.10
52203;DHT22;38173;52.850;6.970;2023-06-19T12:39:16;26.20;87.90
52203;DHT22;38173;52.850;6.970;2023-06-19T12:41:42;26.30;88.00
52203;DHT22;38173;52.850;6.970;2023-06-19T12:44:09;26.40;87.10
52203;DHT22;38173;52.850;6.970;2023-06-19T12:46:38;26.60;87.50
52203;DHT22;38173;52.850;6.970;2023-06-19T12:49:05;26.70;85.60
52203;DHT22;38173;52.850;6.970;2023-06-19T12:51:33;26.80;86.40
52203;DHT22;38173;52.850;6.970;2023-06-19T12:53:59;26.90;84.70
52203;DHT22;38173;52.850;6.970;2023-06-19T12:56:25;26.90;85.30
52203;DHT22;38173;52.850;6.970;2023-06-19T12:58:51;26.70;84.30
52203;DHT22;38173;52.850;6.970;2023-06-19T13:01:17;26.50;84.00
52203;DHT22;38173;52.850;6.970;2023-06-19T13:03:43;26.40;84.70
52203;DHT22;38173;52.850;6.970;2023-06-19T13:06:09;26.50;86.10
52203;DHT22;38173;52.850;6.970;2023-06-19T13:08:36;26.90;87.00
52203;DHT22;38173;52.850;6.970;2023-06-19T13:11:06;27.40;86.30
52203;DHT22;38173;52.850;6.970;2023-06-19T13:13:35;27.90;85.50
52203;DHT22;38173;52.850;6.970;2023-06-19T13:16:04;28.40;83.00
52203;DHT22;38173;52.850;6.970;2023-06-19T13:18:33;28.50;80.10
52203;DHT22;38173;52.850;6.970;2023-06-19T13:21:03;28.70;78.60
52203;DHT22;38173;52.850;6.970;2023-06-19T13:23:29;28.70;79.80
52203;DHT22;38173;52.850;6.970;2023-06-19T13:25:57;28.70;78.40
52203;DHT22;38173;52.850;6.970;2023-06-19T13:28:22;28.60;78.90
52203;DHT22;38173;52.850;6.970;2023-06-19T13:30:58;28.70;78.70
52203;DHT22;38173;52.850;6.970;2023-06-19T13:33:28;28.50;78.70
52203;DHT22;38173;52.850;6.970;2023-06-19T13:35:53;28.20;77.80
52203;DHT22;38173;52.850;6.970;2023-06-19T13:38:19;28.10;79.30
52203;DHT22;38173;52.850;6.970;2023-06-19T13:40:49;28.30;77.50
52203;DHT22;38173;52.850;6.970;2023-06-19T13:43:17;28.60;77.60
52203;DHT22;38173;52.850;6.970;2023-06-19T13:45:45;29.00;77.60
52203;DHT22;38173;52.850;6.970;2023-06-19T13:48:14;29.50;77.00
52203;DHT22;38173;52.850;6.970;2023-06-19T13:50:40;30.00;78.00
52203;DHT22;38173;52.850;6.970;2023-06-19T13:53:20;30.50;76.40
52203;DHT22;38173;52.850;6.970;2023-06-19T13:55:47;30.70;75.00
52203;DHT22;38173;52.850;6.970;2023-06-19T13:58:23;31.00;74.10
52203;DHT22;38173;52.850;6.970;2023-06-19T14:00:52;31.40;73.10
52203;DHT22;38173;52.850;6.970;2023-06-19T14:03:19;31.60;69.50
52203;DHT22;38173;52.850;6.970;2023-06-19T14:05:47;31.80;71.60
52203;DHT22;38173;52.850;6.970;2023-06-19T14:08:16;32.10;71.20
52203;DHT22;38173;52.850;6.970;2023-06-19T14:10:45;32.10;68.80
52203;DHT22;38173;52.850;6.970;2023-06-19T14:13:11;31.90;67.60
52203;DHT22;38173;52.850;6.970;2023-06-19T14:15:37;31.50;68.30
52203;DHT22;38173;52.850;6.970;2023-06-19T14:18:02;31.00;67.80
52203;DHT22;38173;52.850;6.970;2023-06-19T14:20:29;30.80;70.00
52203;DHT22;38173;52.850;6.970;2023-06-19T14:23:01;30.80;70.40
52203;DHT22;38173;52.850;6.970;2023-06-19T14:25:30;30.70;66.60
52203;DHT22;38173;52.850;6.970;2023-06-19T14:27:56;30.50;68.70
52203;DHT22;38173;52.850;6.970;2023-06-19T14:30:22;30.40;67.60
52203;DHT22;38173;52.850;6.970;2023-06-19T14:32:48;30.60;68.80
52203;DHT22;38173;52.850;6.970;2023-06-19T14:35:14;30.40;68.50
52203;DHT22;38173;52.850;6.970;2023-06-19T14:37:40;30.00;67.50
52203;DHT22;38173;52.850;6.970;2023-06-19T14:40:07;29.90;67.70
52203;DHT22;38173;52.850;6.970;2023-06-19T14:42:33;30.20;70.40
52203;DHT22;38173;52.850;6.970;2023-06-19T14:45:14;30.80;68.70
52203;DHT22;38173;52.850;6.970;2023-06-19T14:47:44;31.60;67.90
52203;DHT22;38173;52.850;6.970;2023-06-19T14:50:10;31.80;67.30
52203;DHT22;38173;52.850;6.970;2023-06-19T14:52:39;31.70;64.80
52203;DHT22;38173;52.850;6.970;2023-06-19T14:55:05;31.60;66.00
52203;DHT22;38173;52.850;6.970;2023-06-19T14:57:31;31.80;64.80
52203;DHT22;38173;52.850;6.970;2023-06-19T14:59:58;32.30;65.20
52203;DHT22;38173;52.850;6.970;2023-06-19T15:02:28;32.40;63.20
52203;DHT22;38173;52.850;6.970;2023-06-19T15:04:54;32.30;64.10
52203;DHT22;38173;52.850;6.970;2023-06-19T15:07:25;32.40;62.30
52203;DHT22;38173;52.850;6.970;2023-06-19T15:09:57;32.10;62.80
52203;DHT22;38173;52.850;6.970;2023-06-19T15:12:26;32.10;61.80
52203;DHT22;38173;52.850;6.970;2023-06-19T15:15:13;32.50;60.60
52203;DHT22;38173;52.850;6.970;2023-06-19T15:17:42;32.50;63.00
52203;DHT22;38173;52.850;6.970;2023-06-19T15:20:11;32.60;60.80
52203;DHT22;38173;52.850;6.970;2023-06-19T15:22:42;32.90;62.20
52203;DHT22;38173;52.850;6.970;2023-06-19T15:25:08;33.60;61.60
52203;DHT22;38173;52.850;6.970;2023-06-19T15:27:34;34.10;59.10
52203;DHT22;38173;52.850;6.970;2023-06-19T15:30:00;34.50;58.90
52203;DHT22;38173;52.850;6.970;2023-06-19T15:32:27;35.00;58.00
52203;DHT22;38173;52.850;6.970;2023-06-19T15:34:53;35.30;58.50
52203;DHT22;38173;52.850;6.970;2023-06-19T15:37:19;35.70;59.60
52203;DHT22;38173;52.850;6.970;2023-06-19T15:39:50;35.90;56.80
52203;DHT22;38173;52.850;6.970;2023-06-19T15:43:05;36.00;56.20
52203;DHT22;38173;52.850;6.970;2023-06-19T15:45:34;36.30;54.40